Time;durP1;ratioP1;P1;durP2;ratioP2;P2;SDS_P1;SDS_P2;PMS_P1;PMS_P2;Temp;Humidity;BMP_temperature;BMP_pressure;BME280_temperature;BME280_humidity;BME280_pressure;Samples;Min_cycle;Max_cycle;Signal;HPM_P1;HPM_P2
2022/04/10 00:02:07;;;;;;;;;;;;;;;;;;5074908;28;20295;-45
2022/04/10 00:04:33;;;;;;;;;;;;;;;;;;5074978;28;19908;-47
2022/04/10 00:06:59;;;;;;;;;;;;;;;;;;5075006;28;20165;-46
2022/04/10 00:09:25;;;;;;;;;;;;;;;;;;5074897;28;19954;-46
2022/04/10 00:11:51;;;;;;;;;;;;;;;;;;5074871;28;19912;-45
2022/04/10 00:14:17;;;;;;;;;;;;;;;;;;5074967;28;20394;-46
2022/04/10 00:16:42;;;;;;;;;;;;;;;;;;5074759;28;19916;-46
2022/04/10 00:19:08;;;;;;;;;;;;;;;;;;5056733;28;20286;-47
2022/04/10 00:21:34;;;;;;;;;;;;;;;;;;5074539;28;20282;-46
2022/04/10 00:24:00;;;;;;;;;;;;;;;;;;5074559;28;19978;-47
2022/04/10 00:26:26;;;;;;;;;;;;;;;;;;5074548;28;19995;-45
2022/04/10 00:28:53;;;;;;;;;;;;;;;;;;5074471;28;20380;-46
2022/04/10 00:31:19;;;;;;;;;;;;;;;;;;5074421;28;20446;-45
2022/04/10 00:33:44;;;;;;;;;;;;;;;;;;5074467;28;19955;-46
2022/04/10 00:36:10;;;;;;;;;;;;;;;;;;5074385;28;19913;-46
2022/04/10 00:38:36;;;;;;;;;;;;;;;;;;5074309;28;19974;-46
2022/04/10 00:41:02;;;;;;;;;;;;;;;;;;5074498;28;20011;-45
2022/04/10 00:43:32;;;;;;;;;;;;;;;;;;5074237;28;19908;-45
2022/04/10 00:45:58;;;;;;;;;;;;;;;;;;5074079;28;19909;-45
2022/04/10 00:48:24;;;;;;;;;;;;;;;;;;5074175;28;19915;-45
2022/04/10 00:53:35;;;;;;;;;;;;;;;;;;5074057;28;19978;-46
2022/04/10 00:56:00;;;;;;;;;;;;;;;;;;5073946;28;19912;-46
2022/04/10 00:58:27;;;;;;;;;;;;;;;;;;5073381;28;19909;-46
2022/04/10 01:00:53;;;;;;;;;;;;;;;;;;5073699;28;20371;-45
2022/04/10 01:03:19;;;;;;;;;;;;;;;;;;5073797;28;19916;-45
2022/04/10 01:05:45;;;;;;;;;;;;;;;;;;5073617;28;19915;-47
2022/04/10 01:08:11;;;;;;;;;;;;;;;;;;5073791;28;20049;-46
2022/04/10 01:10:37;;;;;;;;;;;;;;;;;;5073669;28;20359;-50
2022/04/10 01:13:02;;;;;;;;;;;;;;;;;;5073767;28;20005;-49
2022/04/10 01:15:28;;;;;;;;;;;;;;;;;;5073501;28;19932;-49
2022/04/10 01:17:54;;;;;;;;;;;;;;;;;;5073467;28;19908;-47
2022/04/10 01:20:20;;;;;;;;;;;;;;;;;;5073353;28;19912;-49
2022/04/10 01:22:46;;;;;;;;;;;;;;;;;;5073327;28;20356;-48
2022/04/10 01:25:12;;;;;;;;;;;;;;;;;;5073635;28;19908;-49
2022/04/10 01:27:38;;;;;;;;;;;;;;;;;;5073308;28;19909;-48
2022/04/10 01:30:03;;;;;;;;;;;;;;;;;;5073244;28;19909;-49
2022/04/10 01:32:29;;;;;;;;;;;;;;;;;;5073293;28;19954;-49
2022/04/10 01:34:55;;;;;;;;;;;;;;;;;;5073453;28;20267;-48
2022/04/10 01:37:21;;;;;;;;;;;;;;;;;;5073068;28;19912;-49
2022/04/10 01:39:47;;;;;;;;;;;;;;;;;;5073177;28;19924;-50
2022/04/10 01:42:13;;;;;;;;;;;;;;;;;;5073182;28;20007;-48
2022/04/10 01:44:39;;;;;;;;;;;;;;;;;;5073141;28;20275;-48
2022/04/10 01:47:05;;;;;;;;;;;;;;;;;;5073099;28;20013;-49
2022/04/10 01:49:31;;;;;;;;;;;;;;;;;;5073000;28;19920;-48
2022/04/10 01:51:57;;;;;;;;;;;;;;;;;;5072911;28;19916;-49
2022/04/10 01:54:22;;;;;;;;;;;;;;;;;;5072954;28;19909;-48
2022/04/10 01:56:48;;;;;;;;;;;;;;;;;;5072891;28;20379;-49
2022/04/10 01:59:14;;;;;;;;;;;;;;;;;;5072670;28;19909;-49
2022/04/10 02:01:40;;;;;;;;;;;;;;;;;;5072475;28;20015;-50
2022/04/10 02:04:06;;;;;;;;;;;;;;;;;;5073010;28;19954;-52
2022/04/10 02:06:32;;;;;;;;;;;;;;;;;;5072583;28;19905;-49
2022/04/10 02:08:58;;;;;;;;;;;;;;;;;;5072528;28;19999;-50
2022/04/10 02:11:24;;;;;;;;;;;;;;;;;;5071608;28;19955;-49
2022/04/10 02:13:50;;;;;;;;;;;;;;;;;;5072521;28;20282;-50
2022/04/10 02:16:15;;;;;;;;;;;;;;;;;;5072425;28;19950;-48
2022/04/10 02:18:41;;;;;;;;;;;;;;;;;;5072396;28;19951;-49
2022/04/10 02:21:07;;;;;;;;;;;;;;;;;;5072392;28;19916;-49
2022/04/10 02:23:33;;;;;;;;;;;;;;;;;;5072599;28;19915;-49
2022/04/10 02:25:59;;;;;;;;;;;;;;;;;;5072333;28;19908;-48
2022/04/10 02:28:25;;;;;;;;;;;;;;;;;;5072364;28;20379;-50
2022/04/10 02:30:51;;;;;;;;;;;;;;;;;;5072268;28;20061;-49
2022/04/10 02:33:16;;;;;;;;;;;;;;;;;;5072274;28;19909;-48
2022/04/10 02:35:43;;;;;;;;;;;;;;;;;;5072261;28;20436;-48
2022/04/10 02:38:09;;;;;;;;;;;;;;;;;;5072168;28;20387;-49
2022/04/10 02:40:34;;;;;;;;;;;;;;;;;;5072313;28;19923;-48
2022/04/10 02:43:00;;;;;;;;;;;;;;;;;;5072208;28;20353;-49
2022/04/10 02:45:26;;;;;;;;;;;;;;;;;;5072186;28;19915;-49
2022/04/10 02:47:52;;;;;;;;;;;;;;;;;;5072172;28;20019;-48
2022/04/10 02:50:18;;;;;;;;;;;;;;;;;;5072365;28;19908;-48
2022/04/10 02:52:44;;;;;;;;;;;;;;;;;;5072098;28;20349;-48
2022/04/10 02:55:10;;;;;;;;;;;;;;;;;;5072069;28;19978;-49
2022/04/10 02:57:36;;;;;;;;;;;;;;;;;;5072012;28;19909;-48
2022/04/10 03:00:02;;;;;;;;;;;;;;;;;;5072095;28;19908;-48
2022/04/10 03:02:27;;;;;;;;;;;;;;;;;;5071934;28;20375;-48
2022/04/10 03:04:53;;;;;;;;;;;;;;;;;;5072040;28;19909;-50
2022/04/10 03:07:19;;;;;;;;;;;;;;;;;;5072037;28;19919;-49
2022/04/10 03:09:45;;;;;;;;;;;;;;;;;;5072018;28;20513;-49
2022/04/10 03:12:11;;;;;;;;;;;;;;;;;;5071918;28;19919;-50
2022/04/10 03:14:37;;;;;;;;;;;;;;;;;;5072151;28;20003;-49
2022/04/10 03:17:03;;;;;;;;;;;;;;;;;;5071876;28;19912;-49
2022/04/10 03:19:29;;;;;;;;;;;;;;;;;;5071983;28;20421;-46
2022/04/10 03:21:54;;;;;;;;;;;;;;;;;;5072302;28;19916;-45
2022/04/10 03:24:20;;;;;;;;;;;;;;;;;;5075793;28;19991;-45
2022/04/10 03:26:46;;;;;;;;;;;;;;;;;;5075523;28;19908;-47
2022/04/10 03:29:12;;;;;;;;;;;;;;;;;;5075336;28;19947;-46
2022/04/10 03:31:38;;;;;;;;;;;;;;;;;;5075283;28;20436;-47
2022/04/10 03:34:04;;;;;;;;;;;;;;;;;;5075612;28;19908;-47
2022/04/10 03:36:30;;;;;;;;;;;;;;;;;;5075342;28;19908;-46
2022/04/10 03:38:56;;;;;;;;;;;;;;;;;;5075218;28;19966;-45
2022/04/10 03:41:21;;;;;;;;;;;;;;;;;;5075116;28;20015;-45
2022/04/10 03:43:47;;;;;;;;;;;;;;;;;;5075140;28;19970;-45
2022/04/10 03:46:13;;;;;;;;;;;;;;;;;;5075128;28;19909;-46
2022/04/10 03:48:39;;;;;;;;;;;;;;;;;;5075168;28;19908;-46
2022/04/10 03:51:05;;;;;;;;;;;;;;;;;;5075048;28;20389;-46
2022/04/10 03:53:31;;;;;;;;;;;;;;;;;;5075030;28;19912;-45
2022/04/10 03:55:57;;;;;;;;;;;;;;;;;;5075053;28;19917;-49
2022/04/10 03:58:22;;;;;;;;;;;;;;;;;;5074783;28;20389;-50
2022/04/10 04:00:48;;;;;;;;;;;;;;;;;;5074744;28;19924;-49
2022/04/10 04:03:14;;;;;;;;;;;;;;;;;;5074735;28;19909;-50
2022/04/10 04:05:40;;;;;;;;;;;;;;;;;;5074918;28;20016;-48
2022/04/10 04:08:06;;;;;;;;;;;;;;;;;;5074700;28;19919;-49
2022/04/10 04:10:33;;;;;;;;;;;;;;;;;;5074712;28;20007;-48
2022/04/10 04:12:59;;;;;;;;;;;;;;;;;;5075064;28;19908;-49
2022/04/10 04:15:25;;;;;;;;;;;;;;;;;;5074607;28;19931;-49
2022/04/10 04:17:51;;;;;;;;;;;;;;;;;;5074621;28;19912;-48
2022/04/10 04:20:17;;;;;;;;;;;;;;;;;;5074417;28;19913;-49
2022/04/10 04:22:43;;;;;;;;;;;;;;;;;;5074443;28;19908;-48
2022/04/10 04:25:08;;;;;;;;;;;;;;;;;;5074374;28;20007;-49
2022/04/10 04:27:34;;;;;;;;;;;;;;;;;;5074298;28;19909;-49
2022/04/10 04:30:01;;;;;;;;;;;;;;;;;;5074708;28;20381;-49
2022/04/10 04:32:27;;;;;;;;;;;;;;;;;;5074305;28;19916;-49
2022/04/10 04:34:53;;;;;;;;;;;;;;;;;;5073221;28;20002;-48
2022/04/10 04:37:18;;;;;;;;;;;;;;;;;;5073985;28;19998;-49
2022/04/10 04:39:44;;;;;;;;;;;;;;;;;;5074106;28;19908;-48
2022/04/10 04:42:10;;;;;;;;;;;;;;;;;;5074044;28;20012;-49
2022/04/10 04:44:36;;;;;;;;;;;;;;;;;;5073960;28;19912;-48
2022/04/10 04:47:02;;;;;;;;;;;;;;;;;;5073860;28;20334;-48
2022/04/10 04:49:28;;;;;;;;;;;;;;;;;;5073972;28;19916;-48
2022/04/10 04:51:53;;;;;;;;;;;;;;;;;;5073736;28;19952;-47
2022/04/10 04:54:19;;;;;;;;;;;;;;;;;;5073693;28;19924;-49
2022/04/10 04:56:45;;;;;;;;;;;;;;;;;;5073966;28;19935;-49
2022/04/10 04:59:14;;;;;;;;;;;;;;;;;;5073650;28;19913;-49
2022/04/10 05:01:41;;;;;;;;;;;;;;;;;;5073468;28;19924;-49
2022/04/10 05:04:06;;;;;;;;;;;;;;;;;;5073675;28;19909;-49
2022/04/10 05:06:32;;;;;;;;;;;;;;;;;;5073664;28;20260;-49
2022/04/10 05:08:58;;;;;;;;;;;;;;;;;;5073924;28;19916;-49
2022/04/10 05:11:24;;;;;;;;;;;;;;;;;;5073794;28;20007;-48
2022/04/10 05:13:50;;;;;;;;;;;;;;;;;;5073657;28;19909;-50
2022/04/10 05:16:16;;;;;;;;;;;;;;;;;;5073391;28;19912;-48
2022/04/10 05:18:42;;;;;;;;;;;;;;;;;;5073380;28;20375;-51
2022/04/10 05:21:08;;;;;;;;;;;;;;;;;;5073136;28;19963;-47
2022/04/10 05:23:33;;;;;;;;;;;;;;;;;;5073218;28;19908;-48
2022/04/10 05:25:59;;;;;;;;;;;;;;;;;;5073324;28;19908;-49
2022/04/10 05:28:25;;;;;;;;;;;;;;;;;;5073324;28;20570;-49
2022/04/10 05:30:51;;;;;;;;;;;;;;;;;;5073105;28;19959;-48
2022/04/10 05:33:17;;;;;;;;;;;;;;;;;;5073048;28;19908;-48
2022/04/10 05:35:43;;;;;;;;;;;;;;;;;;5073006;28;19908;-48
2022/04/10 05:38:09;;;;;;;;;;;;;;;;;;5072770;28;20019;-49
2022/04/10 05:40:34;;;;;;;;;;;;;;;;;;5073136;28;19935;-49
2022/04/10 05:43:00;;;;;;;;;;;;;;;;;;5072872;28;19936;-49
2022/04/10 05:45:26;;;;;;;;;;;;;;;;;;5073028;28;19912;-49
2022/04/10 05:47:52;;;;;;;;;;;;;;;;;;5072770;28;20410;-48
2022/04/10 05:50:18;;;;;;;;;;;;;;;;;;5072798;28;19954;-49
2022/04/10 05:52:44;;;;;;;;;;;;;;;;;;5072862;28;19916;-49
2022/04/10 05:55:10;;;;;;;;;;;;;;;;;;5072818;28;19908;-48
2022/04/10 05:57:36;;;;;;;;;;;;;;;;;;5072758;28;19915;-50
2022/04/10 06:00:02;;;;;;;;;;;;;;;;;;5072603;28;19909;-49
2022/04/10 06:02:28;;;;;;;;;;;;;;;;;;5072689;28;19912;-49
2022/04/10 06:04:55;;;;;;;;;;;;;;;;;;5072544;28;19908;-49
2022/04/10 06:07:21;;;;;;;;;;;;;;;;;;5072845;28;19995;-49
2022/04/10 06:09:47;;;;;;;;;;;;;;;;;;5072678;28;19939;-49
2022/04/10 06:12:13;;;;;;;;;;;;;;;;;;5072566;28;19935;-49
2022/04/10 06:14:39;;;;;;;;;;;;;;;;;;5072512;28;20355;-49
2022/04/10 06:17:07;;;;;;;;;;;;;;;;;;5072452;28;19915;-49
2022/04/10 06:19:32;;;;;;;;;;;;;;;;;;5072610;28;19908;-49
2022/04/10 06:21:58;;;;;;;;;;;;;;;;;;5072523;28;19939;-49
2022/04/10 06:24:27;;;;;;;;;;;;;;;;;;5072673;28;20003;-49
2022/04/10 06:26:53;;;;;;;;;;;;;;;;;;5072754;28;19916;-49
2022/04/10 06:29:18;;;;;;;;;;;;;;;;;;5072419;28;19996;-50
2022/04/10 06:31:44;;;;;;;;;;;;;;;;;;5072744;28;19915;-50
2022/04/10 06:34:10;;;;;;;;;;;;;;;;;;5072743;28;19962;-49
2022/04/10 06:36:37;;;;;;;;;;;;;;;;;;5072385;28;19909;-49
2022/04/10 06:39:03;;;;;;;;;;;;;;;;;;5072313;28;19927;-49
2022/04/10 06:41:28;;;;;;;;;;;;;;;;;;5072521;28;19916;-49
2022/04/10 06:43:54;;;;;;;;;;;;;;;;;;5072210;28;19909;-49
2022/04/10 06:46:21;;;;;;;;;;;;;;;;;;5072465;28;19930;-49
2022/04/10 06:48:47;;;;;;;;;;;;;;;;;;5072274;28;19909;-49
2022/04/10 06:51:13;;;;;;;;;;;;;;;;;;5072145;28;19908;-50
2022/04/10 06:53:39;;;;;;;;;;;;;;;;;;5072420;28;19916;-50
2022/04/10 06:56:05;;;;;;;;;;;;;;;;;;5072083;28;19998;-49
2022/04/10 06:58:31;;;;;;;;;;;;;;;;;;5075386;28;20012;-48
2022/04/10 07:00:56;;;;;;;;;;;;;;;;;;5075923;28;19923;-48
2022/04/10 07:03:22;;;;;;;;;;;;;;;;;;5075947;28;19908;-48
2022/04/10 07:05:49;;;;;;;;;;;;;;;;;;5075967;28;20398;-50
2022/04/10 07:08:15;;;;;;;;;;;;;;;;;;5076128;28;19916;-49
2022/04/10 07:10:41;;;;;;;;;;;;;;;;;;5075953;28;19920;-49
2022/04/10 07:13:07;;;;;;;;;;;;;;;;;;5075782;28;20001;-50
2022/04/10 07:15:33;;;;;;;;;;;;;;;;;;5075848;28;19952;-48
2022/04/10 07:17:59;;;;;;;;;;;;;;;;;;5075757;28;20352;-49
2022/04/10 07:20:24;;;;;;;;;;;;;;;;;;5075458;28;19913;-50
2022/04/10 07:25:35;;;;;;;;;;;;;;;;;;5075860;28;19961;-47
2022/04/10 07:28:01;;;;;;;;;;;;;;;;;;5075605;28;19946;-48
2022/04/10 07:30:27;;;;;;;;;;;;;;;;;;5075427;28;19999;-48
2022/04/10 07:32:53;;;;;;;;;;;;;;;;;;5075471;28;19958;-47
2022/04/10 07:35:19;;;;;;;;;;;;;;;;;;5075461;28;20379;-46
2022/04/10 07:37:45;;;;;;;;;;;;;;;;;;5075023;28;19920;-47
2022/04/10 07:40:10;;;;;;;;;;;;;;;;;;5075378;28;19923;-47
2022/04/10 07:42:36;;;;;;;;;;;;;;;;;;5075082;28;19913;-46
2022/04/10 07:45:02;;;;;;;;;;;;;;;;;;5075129;28;19909;-45
2022/04/10 07:47:31;;;;;;;;;;;;;;;;;;5075113;28;19915;-47
2022/04/10 07:49:57;;;;;;;;;;;;;;;;;;5075398;28;19961;-48
2022/04/10 07:52:23;;;;;;;;;;;;;;;;;;5074970;28;19917;-46
2022/04/10 07:54:49;;;;;;;;;;;;;;;;;;5075112;28;19909;-47
2022/04/10 07:57:16;;;;;;;;;;;;;;;;;;5074930;28;19910;-47
2022/04/10 07:59:42;;;;;;;;;;;;;;;;;;5074712;28;19952;-48
2022/04/10 08:02:08;;;;;;;;;;;;;;;;;;5074633;28;20391;-48
2022/04/10 08:04:34;;;;;;;;;;;;;;;;;;5074700;28;19915;-46
2022/04/10 08:06:59;;;;;;;;;;;;;;;;;;5074782;28;19909;-47
2022/04/10 08:09:27;;;;;;;;;;;;;;;;;;5074618;28;19914;-46
2022/04/10 08:11:53;;;;;;;;;;;;;;;;;;5074951;28;19940;-52
2022/04/10 08:14:19;;;;;;;;;;;;;;;;;;5075054;28;20334;-46
2022/04/10 08:16:45;;;;;;;;;;;;;;;;;;5074769;28;19948;-48
2022/04/10 08:19:11;;;;;;;;;;;;;;;;;;5075007;28;19976;-47
2022/04/10 08:21:37;;;;;;;;;;;;;;;;;;5074558;28;19917;-45
2022/04/10 08:24:03;;;;;;;;;;;;;;;;;;5074522;28;19916;-45
2022/04/10 08:26:29;;;;;;;;;;;;;;;;;;5074491;28;19954;-45
2022/04/10 08:28:55;;;;;;;;;;;;;;;;;;5074566;28;19913;-45
2022/04/10 08:31:21;;;;;;;;;;;;;;;;;;5074417;28;20011;-46
2022/04/10 08:33:46;;;;;;;;;;;;;;;;;;5074656;28;19908;-47
2022/04/10 08:36:12;;;;;;;;;;;;;;;;;;5074416;28;19908;-46
2022/04/10 08:38:38;;;;;;;;;;;;;;;;;;5073973;28;20065;-47
2022/04/10 08:41:04;;;;;;;;;;;;;;;;;;5074229;28;19916;-48
2022/04/10 08:43:30;;;;;;;;;;;;;;;;;;5074104;28;20401;-47
2022/04/10 08:45:57;;;;;;;;;;;;;;;;;;5074104;28;19916;-47
2022/04/10 08:48:24;;;;;;;;;;;;;;;;;;5074442;28;20274;-47
2022/04/10 08:50:50;;;;;;;;;;;;;;;;;;5074002;28;19955;-48
2022/04/10 08:53:16;;;;;;;;;;;;;;;;;;5073974;28;20009;-46
2022/04/10 08:55:42;;;;;;;;;;;;;;;;;;5074234;28;19908;-47
2022/04/10 08:58:08;;;;;;;;;;;;;;;;;;5073895;28;19908;-46
2022/04/10 09:00:35;;;;;;;;;;;;;;;;;;5073649;28;19964;-47
2022/04/10 09:03:01;;;;;;;;;;;;;;;;;;5073920;28;19948;-46
2022/04/10 09:05:27;;;;;;;;;;;;;;;;;;5073763;28;20282;-48
2022/04/10 09:07:53;;;;;;;;;;;;;;;;;;5073784;28;19919;-46
2022/04/10 09:10:19;;;;;;;;;;;;;;;;;;5073629;28;19909;-46
2022/04/10 09:12:45;;;;;;;;;;;;;;;;;;5073967;28;19909;-46
2022/04/10 09:15:10;;;;;;;;;;;;;;;;;;5073885;28;19912;-47
2022/04/10 09:17:36;;;;;;;;;;;;;;;;;;5073695;28;20389;-46
2022/04/10 09:20:02;;;;;;;;;;;;;;;;;;5072961;28;19952;-46
2022/04/10 09:22:28;;;;;;;;;;;;;;;;;;5073614;28;19917;-46
2022/04/10 09:24:54;;;;;;;;;;;;;;;;;;5073454;28;19916;-47
2022/04/10 09:27:20;;;;;;;;;;;;;;;;;;5073310;28;20379;-47
2022/04/10 09:29:46;;;;;;;;;;;;;;;;;;5073177;28;19909;-47
2022/04/10 09:32:12;;;;;;;;;;;;;;;;;;5073336;28;19915;-47
2022/04/10 09:34:37;;;;;;;;;;;;;;;;;;5073158;28;19908;-47
2022/04/10 09:37:05;;;;;;;;;;;;;;;;;;5073156;28;20011;-47
2022/04/10 09:39:31;;;;;;;;;;;;;;;;;;5073073;28;19977;-47
2022/04/10 09:41:57;;;;;;;;;;;;;;;;;;5073001;28;19916;-47
2022/04/10 09:44:25;;;;;;;;;;;;;;;;;;5073168;28;20322;-46
2022/04/10 09:46:50;;;;;;;;;;;;;;;;;;5072991;28;19908;-46
2022/04/10 09:49:16;;;;;;;;;;;;;;;;;;5073123;28;20315;-47
2022/04/10 09:51:42;;;;;;;;;;;;;;;;;;5072921;28;19962;-48
2022/04/10 09:54:08;;;;;;;;;;;;;;;;;;5072923;28;19948;-47
2022/04/10 09:56:34;;;;;;;;;;;;;;;;;;5072957;28;20359;-47
2022/04/10 09:59:00;;;;;;;;;;;;;;;;;;5072952;28;19916;-48
2022/04/10 10:01:26;;;;;;;;;;;;;;;;;;5073059;28;19917;-46
2022/04/10 10:03:52;;;;;;;;;;;;;;;;;;5072777;28;20290;-46
2022/04/10 10:06:19;;;;;;;;;;;;;;;;;;5072776;28;19905;-47
2022/04/10 10:08:45;;;;;;;;;;;;;;;;;;5072685;28;19908;-46
2022/04/10 10:11:11;;;;;;;;;;;;;;;;;;5072724;28;19916;-46
2022/04/10 10:13:37;;;;;;;;;;;;;;;;;;5072950;28;19908;-48
2022/04/10 10:16:03;;;;;;;;;;;;;;;;;;5072663;28;19904;-48
2022/04/10 10:18:28;;;;;;;;;;;;;;;;;;5073031;28;19970;-47
2022/04/10 10:20:54;;;;;;;;;;;;;;;;;;5072900;28;19918;-46
2022/04/10 10:23:21;;;;;;;;;;;;;;;;;;5072717;28;19908;-47
2022/04/10 10:25:47;;;;;;;;;;;;;;;;;;5072571;28;19942;-48
2022/04/10 10:28:13;;;;;;;;;;;;;;;;;;5072614;28;19913;-46
2022/04/10 10:30:39;;;;;;;;;;;;;;;;;;5072583;28;20026;-46
2022/04/10 10:33:05;;;;;;;;;;;;;;;;;;5075177;28;20359;-46
2022/04/10 10:35:30;;;;;;;;;;;;;;;;;;5076679;28;19912;-46
2022/04/10 10:37:56;;;;;;;;;;;;;;;;;;5076550;28;19923;-48
2022/04/10 10:40:22;;;;;;;;;;;;;;;;;;5076625;28;20358;-47
2022/04/10 10:42:48;;;;;;;;;;;;;;;;;;5076570;28;19912;-46
2022/04/10 10:45:14;;;;;;;;;;;;;;;;;;5076561;28;19909;-46
2022/04/10 10:47:40;;;;;;;;;;;;;;;;;;5076339;28;19918;-46
2022/04/10 10:50:06;;;;;;;;;;;;;;;;;;5076586;28;19915;-46
2022/04/10 10:52:32;;;;;;;;;;;;;;;;;;5076235;28;19913;-45
2022/04/10 10:54:58;;;;;;;;;;;;;;;;;;5076140;28;19955;-46
2022/04/10 10:57:24;;;;;;;;;;;;;;;;;;5076069;28;19916;-47
2022/04/10 10:59:50;;;;;;;;;;;;;;;;;;5076138;28;19962;-46
2022/04/10 11:02:18;;;;;;;;;;;;;;;;;;5075932;28;19916;-47
2022/04/10 11:04:44;;;;;;;;;;;;;;;;;;5076030;28;20365;-46
2022/04/10 11:07:11;;;;;;;;;;;;;;;;;;5075918;28;20003;-46
2022/04/10 11:09:36;;;;;;;;;;;;;;;;;;5076398;28;19931;-46
2022/04/10 11:12:03;;;;;;;;;;;;;;;;;;5076376;28;19908;-46
2022/04/10 11:14:28;;;;;;;;;;;;;;;;;;5075848;28;19909;-47
2022/04/10 11:16:54;;;;;;;;;;;;;;;;;;5075853;28;19961;-46
2022/04/10 11:19:23;;;;;;;;;;;;;;;;;;5075681;28;19908;-46
2022/04/10 11:21:49;;;;;;;;;;;;;;;;;;5075772;28;20279;-46
2022/04/10 11:24:14;;;;;;;;;;;;;;;;;;5075800;28;19908;-46
2022/04/10 11:26:40;;;;;;;;;;;;;;;;;;5075883;28;19999;-45
2022/04/10 11:29:07;;;;;;;;;;;;;;;;;;5075443;28;19931;-47
2022/04/10 11:31:33;;;;;;;;;;;;;;;;;;5075613;28;19913;-45
2022/04/10 11:33:59;;;;;;;;;;;;;;;;;;5075945;28;19969;-46
2022/04/10 11:36:25;;;;;;;;;;;;;;;;;;5075569;28;20425;-49
2022/04/10 11:38:51;;;;;;;;;;;;;;;;;;5075261;28;20024;-48
2022/04/10 11:41:16;;;;;;;;;;;;;;;;;;5075075;28;19916;-49
2022/04/10 11:43:42;;;;;;;;;;;;;;;;;;5075016;28;19999;-49
2022/04/10 11:46:08;;;;;;;;;;;;;;;;;;5075071;28;19909;-50
2022/04/10 11:48:34;;;;;;;;;;;;;;;;;;5075107;28;19948;-51
2022/04/10 11:51:00;;;;;;;;;;;;;;;;;;5075182;28;19923;-48
2022/04/10 11:53:26;;;;;;;;;;;;;;;;;;5075119;28;19913;-48
2022/04/10 11:55:52;;;;;;;;;;;;;;;;;;5074908;28;20390;-47
2022/04/10 11:58:18;;;;;;;;;;;;;;;;;;5075064;28;20009;-48
2022/04/10 12:00:44;;;;;;;;;;;;;;;;;;5075307;28;19916;-48
2022/04/10 12:03:10;;;;;;;;;;;;;;;;;;5074986;28;19947;-49
2022/04/10 12:05:36;;;;;;;;;;;;;;;;;;5057076;28;19909;-48
2022/04/10 12:08:02;;;;;;;;;;;;;;;;;;5075005;28;19915;-49
2022/04/10 12:10:28;;;;;;;;;;;;;;;;;;5075010;28;19916;-48
2022/04/10 12:12:54;;;;;;;;;;;;;;;;;;5075237;28;19919;-47
2022/04/10 12:15:20;;;;;;;;;;;;;;;;;;5074818;28;20286;-47
2022/04/10 12:17:46;;;;;;;;;;;;;;;;;;5074799;28;19908;-47
2022/04/10 12:20:11;;;;;;;;;;;;;;;;;;5074796;28;19919;-48
2022/04/10 12:22:37;;;;;;;;;;;;;;;;;;5074983;28;20162;-47
2022/04/10 12:25:03;;;;;;;;;;;;;;;;;;5074700;28;20285;-46
2022/04/10 12:27:29;;;;;;;;;;;;;;;;;;5074605;28;19908;-47
2022/04/10 12:29:55;;;;;;;;;;;;;;;;;;5074628;28;20007;-46
2022/04/10 12:32:21;;;;;;;;;;;;;;;;;;5074574;28;20049;-47
2022/04/10 12:34:47;;;;;;;;;;;;;;;;;;5074563;28;19908;-46
2022/04/10 12:37:13;;;;;;;;;;;;;;;;;;5074373;28;19909;-48
2022/04/10 12:39:39;;;;;;;;;;;;;;;;;;5074800;28;20362;-47
2022/04/10 12:42:07;;;;;;;;;;;;;;;;;;5074280;28;19917;-48
2022/04/10 12:44:32;;;;;;;;;;;;;;;;;;5074867;28;19912;-47
2022/04/10 12:46:58;;;;;;;;;;;;;;;;;;5074322;28;19916;-47
2022/04/10 12:49:24;;;;;;;;;;;;;;;;;;5074226;28;19995;-48
2022/04/10 12:51:50;;;;;;;;;;;;;;;;;;5074011;28;20367;-47
2022/04/10 12:54:16;;;;;;;;;;;;;;;;;;5055629;28;19909;-48
2022/04/10 12:56:42;;;;;;;;;;;;;;;;;;5073727;28;19908;-47
2022/04/10 12:59:08;;;;;;;;;;;;;;;;;;5073993;28;19955;-47
2022/04/10 13:01:34;;;;;;;;;;;;;;;;;;5073702;28;20007;-47
2022/04/10 13:03:59;;;;;;;;;;;;;;;;;;5073903;28;19951;-47
2022/04/10 13:06:26;;;;;;;;;;;;;;;;;;5073880;28;19909;-48
2022/04/10 13:08:52;;;;;;;;;;;;;;;;;;5074083;28;19913;-47
2022/04/10 13:11:18;;;;;;;;;;;;;;;;;;5073766;28;20372;-49
2022/04/10 13:13:44;;;;;;;;;;;;;;;;;;5073647;28;19963;-47
2022/04/10 13:16:10;;;;;;;;;;;;;;;;;;5073672;28;19905;-49
2022/04/10 13:18:36;;;;;;;;;;;;;;;;;;5073879;28;19943;-48
2022/04/10 13:21:02;;;;;;;;;;;;;;;;;;5073728;28;19986;-48
2022/04/10 13:23:28;;;;;;;;;;;;;;;;;;5073515;28;19916;-48
2022/04/10 13:25:54;;;;;;;;;;;;;;;;;;5073545;28;19955;-49
2022/04/10 13:28:20;;;;;;;;;;;;;;;;;;5073461;28;20383;-48
2022/04/10 13:30:45;;;;;;;;;;;;;;;;;;5073406;28;19908;-48
2022/04/10 13:33:11;;;;;;;;;;;;;;;;;;5073375;28;19913;-49
2022/04/10 13:35:37;;;;;;;;;;;;;;;;;;5073294;28;20424;-49
2022/04/10 13:38:03;;;;;;;;;;;;;;;;;;5073066;28;19920;-48
2022/04/10 13:40:31;;;;;;;;;;;;;;;;;;5073133;28;20366;-49
2022/04/10 13:42:57;;;;;;;;;;;;;;;;;;5073119;28;20256;-49
2022/04/10 13:45:25;;;;;;;;;;;;;;;;;;5072728;28;20409;-47
2022/04/10 13:47:51;;;;;;;;;;;;;;;;;;5073090;28;19971;-46
2022/04/10 13:50:18;;;;;;;;;;;;;;;;;;5073096;28;19909;-49
2022/04/10 13:52:44;;;;;;;;;;;;;;;;;;5055113;28;19944;-47
2022/04/10 13:55:09;;;;;;;;;;;;;;;;;;5073022;28;19951;-47
2022/04/10 13:57:35;;;;;;;;;;;;;;;;;;5073239;28;19912;-47
2022/04/10 14:00:01;;;;;;;;;;;;;;;;;;5072926;28;19912;-46
2022/04/10 14:02:27;;;;;;;;;;;;;;;;;;5072872;28;19924;-47
2022/04/10 14:04:53;;;;;;;;;;;;;;;;;;5072835;28;20439;-47
2022/04/10 14:07:19;;;;;;;;;;;;;;;;;;5072941;28;20252;-47
2022/04/10 14:09:45;;;;;;;;;;;;;;;;;;5072831;28;19916;-48
2022/04/10 14:12:11;;;;;;;;;;;;;;;;;;5073028;28;19919;-47
2022/04/10 14:14:37;;;;;;;;;;;;;;;;;;5072743;28;20341;-46
2022/04/10 14:17:03;;;;;;;;;;;;;;;;;;5072723;28;19998;-46
2022/04/10 14:19:29;;;;;;;;;;;;;;;;;;5072759;28;20050;-47
2022/04/10 14:21:54;;;;;;;;;;;;;;;;;;5072886;28;19924;-45
2022/04/10 14:24:20;;;;;;;;;;;;;;;;;;5072627;28;19909;-46
2022/04/10 14:26:46;;;;;;;;;;;;;;;;;;5072508;28;19944;-46
2022/04/10 14:29:12;;;;;;;;;;;;;;;;;;5072526;28;20275;-47
2022/04/10 14:31:38;;;;;;;;;;;;;;;;;;5072477;28;20011;-48
2022/04/10 14:34:04;;;;;;;;;;;;;;;;;;5072365;28;19917;-47
2022/04/10 14:36:30;;;;;;;;;;;;;;;;;;5072626;28;20003;-47
2022/04/10 14:38:56;;;;;;;;;;;;;;;;;;5072226;28;20337;-49
2022/04/10 14:41:22;;;;;;;;;;;;;;;;;;5072333;28;19942;-48
2022/04/10 14:43:48;;;;;;;;;;;;;;;;;;5072693;28;20279;-49
2022/04/10 14:46:14;;;;;;;;;;;;;;;;;;5072504;28;19962;-49
2022/04/10 14:48:40;;;;;;;;;;;;;;;;;;5072681;28;19916;-49
2022/04/10 14:51:06;;;;;;;;;;;;;;;;;;5072437;28;19908;-48
2022/04/10 14:53:32;;;;;;;;;;;;;;;;;;5072411;28;19912;-51
2022/04/10 14:55:58;;;;;;;;;;;;;;;;;;5072380;28;19909;-47
2022/04/10 14:58:24;;;;;;;;;;;;;;;;;;5072380;28;19908;-49
2022/04/10 15:00:50;;;;;;;;;;;;;;;;;;5072138;28;19965;-48
2022/04/10 15:03:18;;;;;;;;;;;;;;;;;;5071969;28;20402;-50
2022/04/10 15:05:44;;;;;;;;;;;;;;;;;;5072224;28;19948;-49
2022/04/10 15:08:10;;;;;;;;;;;;;;;;;;5072224;28;19955;-49
2022/04/10 15:10:36;;;;;;;;;;;;;;;;;;5072208;28;19908;-49
2022/04/10 15:13:01;;;;;;;;;;;;;;;;;;5072116;28;19913;-49
2022/04/10 15:15:27;;;;;;;;;;;;;;;;;;5072077;28;19909;-48
2022/04/10 15:17:53;;;;;;;;;;;;;;;;;;5072590;28;20358;-47
2022/04/10 15:20:19;;;;;;;;;;;;;;;;;;5076021;28;20004;-49
2022/04/10 15:22:45;;;;;;;;;;;;;;;;;;5075971;28;19916;-49
2022/04/10 15:25:11;;;;;;;;;;;;;;;;;;5075757;28;19912;-48
2022/04/10 15:27:37;;;;;;;;;;;;;;;;;;5057826;28;19908;-48
2022/04/10 15:30:03;;;;;;;;;;;;;;;;;;5076003;28;19908;-49
2022/04/10 15:32:29;;;;;;;;;;;;;;;;;;5075783;28;19970;-49
2022/04/10 15:34:55;;;;;;;;;;;;;;;;;;5075455;28;19915;-49
2022/04/10 15:37:20;;;;;;;;;;;;;;;;;;5075365;28;19955;-50
2022/04/10 15:39:46;;;;;;;;;;;;;;;;;;5075429;28;19916;-48
2022/04/10 15:42:12;;;;;;;;;;;;;;;;;;5075346;28;19968;-48
2022/04/10 15:44:38;;;;;;;;;;;;;;;;;;5075443;28;19909;-51
2022/04/10 15:47:04;;;;;;;;;;;;;;;;;;5075382;28;19915;-52
2022/04/10 15:49:30;;;;;;;;;;;;;;;;;;5075345;28;19908;-50
2022/04/10 15:51:56;;;;;;;;;;;;;;;;;;5075361;28;19923;-48
2022/04/10 15:54:22;;;;;;;;;;;;;;;;;;5075533;28;19909;-48
2022/04/10 15:56:48;;;;;;;;;;;;;;;;;;5075152;28;19947;-48
2022/04/10 15:59:14;;;;;;;;;;;;;;;;;;5075136;28;19931;-49
2022/04/10 16:01:40;;;;;;;;;;;;;;;;;;5075258;28;19939;-52
2022/04/10 16:04:05;;;;;;;;;;;;;;;;;;5075129;28;19915;-49
2022/04/10 16:06:32;;;;;;;;;;;;;;;;;;5075116;28;20061;-49
2022/04/10 16:08:58;;;;;;;;;;;;;;;;;;5075127;28;19909;-49
2022/04/10 16:11:24;;;;;;;;;;;;;;;;;;5075284;28;19969;-50
2022/04/10 16:13:49;;;;;;;;;;;;;;;;;;5074995;28;19909;-47
2022/04/10 16:16:16;;;;;;;;;;;;;;;;;;5074949;28;20381;-48
2022/04/10 16:18:42;;;;;;;;;;;;;;;;;;5074765;28;19985;-48
2022/04/10 16:21:10;;;;;;;;;;;;;;;;;;5074562;28;19960;-49
2022/04/10 16:23:36;;;;;;;;;;;;;;;;;;5074497;28;19936;-49
2022/04/10 16:26:02;;;;;;;;;;;;;;;;;;5074511;28;19956;-48
2022/04/10 16:31:12;;;;;;;;;;;;;;;;;;5073604;28;20054;-49
2022/04/10 16:34:17;;;;;;;;;;;;;;;;;;5074421;28;19944;-50
2022/04/10 16:36:24;;;;;;;;;;;;;;;;;;5074366;28;19999;-48
2022/04/10 16:38:50;;;;;;;;;;;;;;;;;;5074259;28;19951;-48
2022/04/10 16:41:16;;;;;;;;;;;;;;;;;;5074327;28;19920;-51
2022/04/10 16:43:42;;;;;;;;;;;;;;;;;;5074358;28;19916;-48
2022/04/10 16:46:08;;;;;;;;;;;;;;;;;;5074527;28;19908;-48